createdAt,value
2018-09-28T00:00:54.997Z,99631.38
2018-09-28T00:03:29.632Z,99633.61
2018-09-28T00:06:04.148Z,99627.41
2018-09-28T00:08:38.636Z,99627.70
2018-09-28T00:11:13.400Z,99626.38
2018-09-28T00:13:47.925Z,99628.84
2018-09-28T00:16:22.605Z,99622.63
2018-09-28T00:18:57.149Z,99619.37
2018-09-28T00:21:31.608Z,99620.73
2018-09-28T00:24:08.228Z,99628.09
2018-09-28T00:26:42.812Z,99629.49
2018-09-28T00:29:17.594Z,99623.64
2018-09-28T00:31:52.267Z,99620.73
2018-09-28T00:34:26.805Z,99622.35
2018-09-28T00:37:01.909Z,99615.37
2018-09-28T00:39:36.429Z,99614.82
2018-09-28T00:42:10.922Z,99618.38
2018-09-28T00:44:45.313Z,99612.72
2018-09-28T00:47:19.745Z,99607.91
2018-09-28T00:49:54.728Z,99610.42
2018-09-28T00:52:29.304Z,99609.41
2018-09-28T00:55:04.181Z,99606.75
2018-09-28T00:57:38.616Z,99613.83
2018-09-28T01:00:13.152Z,99616.56
2018-09-28T01:02:48.026Z,99616.88
2018-09-28T01:05:22.625Z,99616.62
2018-09-28T01:07:57.217Z,99614.17
2018-09-28T01:10:32.060Z,99618.23
2018-09-28T01:13:06.533Z,99615.30
2018-09-28T01:15:40.996Z,99607.47
2018-09-28T01:18:15.534Z,99606.89
2018-09-28T01:20:49.996Z,99604.36
2018-09-28T01:23:24.416Z,99611.38
2018-09-28T01:25:58.992Z,99597.58
2018-09-28T01:28:38.383Z,99596.50
2018-09-28T01:31:20.145Z,99604.87
2018-09-28T01:34:00.957Z,99597.66
2018-09-28T01:36:35.493Z,99604.27
2018-09-28T01:39:10.653Z,99600.53
2018-09-28T01:41:45.021Z,99597.63
2018-09-28T01:44:26.423Z,99607.17
2018-09-28T01:47:20.540Z,99605.60
2018-09-28T01:52:54.852Z,99593.77
2018-09-28T01:58:30.297Z,99582.67
2018-09-28T02:01:04.832Z,99589.42
2018-09-28T02:03:39.313Z,99589.69
2018-09-28T02:06:13.972Z,99605.13
2018-09-28T02:08:52.014Z,99616.80
2018-09-28T02:11:30.865Z,99618.72
2018-09-28T02:14:12.168Z,99611.76
2018-09-28T02:16:47.062Z,99608.02
2018-09-28T02:19:21.649Z,99616.67
2018-09-28T02:21:56.652Z,99613.92
2018-09-28T02:24:31.143Z,99612.33
2018-09-28T02:27:05.581Z,99609.67
2018-09-28T02:29:40.224Z,99614.31
2018-09-28T02:32:14.849Z,99604.26
2018-09-28T02:34:49.789Z,99607.78
2018-09-28T02:37:24.316Z,99600.75
2018-09-28T02:39:58.771Z,99606.97
2018-09-28T02:42:33.369Z,99601.56
2018-09-28T02:45:07.980Z,99602.58
2018-09-28T02:47:42.698Z,99600.70
2018-09-28T02:50:17.109Z,99601.56
2018-09-28T02:52:52.094Z,99600.76
2018-09-28T02:55:26.840Z,99598.27
2018-09-28T02:58:01.497Z,99596.13
2018-09-28T03:00:35.969Z,99596.14
2018-09-28T03:03:10.817Z,99591.84
2018-09-28T03:05:45.372Z,99594.31
2018-09-28T03:08:19.833Z,99591.30
2018-09-28T03:10:54.377Z,99590.19
2018-09-28T03:13:28.940Z,99592.31
2018-09-28T03:16:03.865Z,99584.46
2018-09-28T03:18:38.396Z,99591.80
2018-09-28T03:21:12.881Z,99589.10
2018-09-28T03:23:47.878Z,99583.14
2018-09-28T03:26:22.545Z,99582.09
2018-09-28T03:28:57.081Z,99584.77
2018-09-28T03:31:31.642Z,99585.03
2018-09-28T03:34:06.478Z,99589.33
2018-09-28T03:36:40.959Z,99591.22
2018-09-28T03:39:15.717Z,99586.12
2018-09-28T03:41:50.474Z,99589.42
2018-09-28T03:44:25.206Z,99584.91
2018-09-28T03:46:59.838Z,99590.34
2018-09-28T03:49:34.437Z,99588.42
2018-09-28T03:52:09.091Z,99593.31
2018-09-28T03:54:43.534Z,99601.21
2018-09-28T03:57:17.961Z,99603.67
2018-09-28T03:59:52.690Z,99599.92
2018-09-28T04:02:27.145Z,99598.57
2018-09-28T04:05:01.648Z,99601.28
2018-09-28T04:07:36.501Z,99598.32
2018-09-28T04:10:10.893Z,99603.45
2018-09-28T04:12:45.420Z,99596.95
2018-09-28T04:15:19.968Z,99599.94
2018-09-28T04:17:54.371Z,99602.63
2018-09-28T04:20:28.848Z,99605.32
2018-09-28T04:23:03.270Z,99606.69
2018-09-28T04:25:37.790Z,99616.16
2018-09-28T04:28:12.238Z,99619.94
2018-09-28T04:30:46.847Z,99614.77
2018-09-28T04:33:21.273Z,99616.91
2018-09-28T04:35:55.910Z,99620.16
2018-09-28T04:38:30.609Z,99616.62
2018-09-28T04:41:05.104Z,99614.17
2018-09-28T04:43:39.956Z,99611.99
2018-09-28T04:46:14.690Z,99622.55
2018-09-28T04:48:49.296Z,99615.77
2018-09-28T04:51:23.998Z,99613.33
2018-09-28T04:53:58.640Z,99626.58
2018-09-28T04:56:55.543Z,99620.05
2018-09-28T04:59:30.148Z,99626.02
2018-09-28T05:02:04.772Z,99629.81
2018-09-28T05:04:39.225Z,99622.78
2018-09-28T05:07:17.290Z,99633.08
2018-09-28T05:09:52.457Z,99644.45
2018-09-28T05:12:27.104Z,99649.02
2018-09-28T05:15:01.609Z,99643.32
2018-09-28T05:17:36.333Z,99656.33
2018-09-28T05:20:10.725Z,99650.09
2018-09-28T05:22:45.939Z,99656.83
2018-09-28T05:25:20.422Z,99655.14
2018-09-28T05:27:55.003Z,99655.30
2018-09-28T05:30:29.504Z,99661.92
2018-09-28T05:33:04.464Z,99662.05
2018-09-28T05:35:38.861Z,99643.75
2018-09-28T05:38:13.329Z,99656.06
2018-09-28T05:40:47.917Z,99656.99
2018-09-28T05:43:22.345Z,99661.52
2018-09-28T05:45:56.818Z,99663.89
2018-09-28T05:48:31.298Z,99669.23
2018-09-28T05:51:06.218Z,99673.47
2018-09-28T05:53:41.099Z,99682.13
2018-09-28T05:56:15.436Z,99690.18
2018-09-28T05:58:55.529Z,99690.73
2018-09-28T06:01:35.474Z,99692.55
2018-09-28T06:04:27.380Z,99688.30
2018-09-28T06:07:01.859Z,99702.80
2018-09-28T06:09:36.536Z,99697.88
2018-09-28T06:12:10.984Z,99702.95
2018-09-28T06:14:45.453Z,99709.19
2018-09-28T06:17:19.993Z,99705.92
2018-09-28T06:19:54.740Z,99716.44
2018-09-28T06:22:29.257Z,99726.75
2018-09-28T06:25:03.804Z,99725.42
2018-09-28T06:27:38.228Z,99723.30
2018-09-28T06:30:12.682Z,99727.59
2018-09-28T06:32:47.129Z,99716.95
2018-09-28T06:35:21.359Z,99722.64
2018-09-28T06:37:56.052Z,99725.06
2018-09-28T06:40:30.556Z,99720.77
2018-09-28T06:43:04.871Z,99734.09
2018-09-28T06:45:39.359Z,99738.40
2018-09-28T06:48:13.737Z,99740.86
2018-09-28T06:50:48.134Z,99745.62
2018-09-28T06:56:21.528Z,99739.38
2018-09-28T06:58:56.128Z,99747.43
2018-09-28T07:01:30.537Z,99740.31
2018-09-28T07:04:04.980Z,99753.31
2018-09-28T07:06:39.215Z,99758.94
2018-09-28T07:09:13.814Z,99756.41
2018-09-28T07:11:48.099Z,99760.56
2018-09-28T07:20:20.015Z,99767.39
2018-09-28T07:22:54.386Z,99769.30
2018-09-28T07:25:28.780Z,99765.70
2018-09-28T07:28:03.233Z,99768.13
2018-09-28T07:30:37.686Z,99774.60
2018-09-28T07:33:12.442Z,99780.59
2018-09-28T07:35:46.885Z,99778.39
2018-09-28T07:38:21.495Z,99782.50
2018-09-28T07:40:55.731Z,99790.33
2018-09-28T07:43:30.306Z,99794.30
2018-09-28T07:46:04.713Z,99794.81
2018-09-28T07:48:39.186Z,99803.53
2018-09-28T07:51:13.907Z,99804.59
2018-09-28T07:53:48.195Z,99819.23
2018-09-28T07:56:22.599Z,99819.00
2018-09-28T07:58:57.064Z,99822.56
2018-09-28T08:01:31.508Z,99835.42
2018-09-28T08:04:06.236Z,99835.03
2018-09-28T08:06:41.523Z,99831.69
2018-09-28T08:09:15.913Z,99831.06
2018-09-28T08:11:50.306Z,99839.00
2018-09-28T08:14:24.738Z,99845.29
2018-09-28T08:16:59.181Z,99847.39
2018-09-28T08:19:33.567Z,99844.67
2018-09-28T08:22:08.149Z,99861.38
2018-09-28T08:24:42.409Z,99860.70
2018-09-28T08:27:16.764Z,99860.73
2018-09-28T08:29:51.469Z,99862.91
2018-09-28T08:32:25.900Z,99866.69
2018-09-28T08:35:00.352Z,99867.50
2018-09-28T08:37:34.644Z,99878.64
2018-09-28T08:40:09.060Z,99877.38
2018-09-28T08:42:43.759Z,99879.25
2018-09-28T08:45:18.040Z,99880.81
2018-09-28T08:47:52.482Z,99882.58
2018-09-28T08:50:26.751Z,99881.03
2018-09-28T08:53:01.164Z,99887.17
2018-09-28T08:55:35.654Z,99879.31
2018-09-28T08:58:10.077Z,99890.45
2018-09-28T09:00:44.968Z,99893.69
2018-09-28T09:03:19.397Z,99896.56
2018-09-28T09:05:53.909Z,99896.16
2018-09-28T09:08:28.551Z,99902.70
2018-09-28T09:11:03.400Z,99904.50
2018-09-28T09:13:38.112Z,99909.06
2018-09-28T09:16:12.391Z,99911.77
2018-09-28T09:18:46.783Z,99910.92
2018-09-28T09:21:21.223Z,99920.79
2018-09-28T09:23:55.590Z,99925.76
2018-09-28T09:26:30.257Z,99931.75
2018-09-28T09:29:04.879Z,99929.88
2018-09-28T09:31:39.347Z,99938.30
2018-09-28T09:34:14.100Z,99940.27
2018-09-28T09:36:48.588Z,99943.64
2018-09-28T09:39:22.864Z,99944.27
2018-09-28T09:41:57.144Z,99943.21
2018-09-28T09:44:31.516Z,99940.52
2018-09-28T09:47:05.948Z,99945.16
2018-09-28T09:49:40.664Z,99948.25
2018-09-28T09:52:15.113Z,99954.87
2018-09-28T09:54:49.677Z,99954.02
2018-09-28T09:57:24.236Z,99949.23
2018-09-28T09:59:58.813Z,99957.21
2018-09-28T10:02:38.686Z,99956.41
2018-09-28T10:05:13.369Z,99958.58
2018-09-28T10:07:48.119Z,99955.78
2018-09-28T10:10:22.746Z,99969.66
2018-09-28T10:12:57.250Z,99974.09
2018-09-28T10:15:32.101Z,99977.63
2018-09-28T10:18:06.695Z,99979.28
2018-09-28T10:20:41.503Z,99981.97
2018-09-28T10:23:16.147Z,99984.07
2018-09-28T10:25:50.735Z,99983.69
2018-09-28T10:28:25.371Z,99980.28
2018-09-28T10:31:00.054Z,99988.13
2018-09-28T10:33:34.666Z,99978.23
2018-09-28T10:36:09.084Z,99980.81
2018-09-28T10:38:44.081Z,99976.03
2018-09-28T10:41:18.642Z,99985.41
2018-09-28T10:43:52.986Z,99988.22
2018-09-28T10:46:27.518Z,99985.05
2018-09-28T10:49:02.010Z,99985.64
2018-09-28T10:51:36.790Z,99986.85
2018-09-28T10:54:11.350Z,99992.27
2018-09-28T10:56:45.635Z,100000.62
2018-09-28T10:59:19.924Z,99984.98
2018-09-28T11:01:54.411Z,99996.31
2018-09-28T11:04:28.927Z,99998.63
2018-09-28T11:07:03.216Z,100014.70
2018-09-28T11:09:37.615Z,100016.55
2018-09-28T11:12:11.952Z,100014.81
2018-09-28T11:14:46.597Z,100014.34
2018-09-28T11:17:20.900Z,100012.09
2018-09-28T11:19:55.709Z,100012.29
2018-09-28T11:22:30.213Z,100017.11
2018-09-28T11:25:04.816Z,100010.27
2018-09-28T11:27:39.254Z,100009.05
2018-09-28T11:30:13.774Z,100003.67
2018-09-28T11:32:48.336Z,100008.97
2018-09-28T11:35:22.910Z,100007.05
2018-09-28T11:37:57.608Z,100002.39
2018-09-28T11:40:32.342Z,100003.63
2018-09-28T11:43:07.013Z,100001.93
2018-09-28T11:45:41.532Z,99997.54
2018-09-28T11:48:16.901Z,100003.63
2018-09-28T11:50:51.748Z,100012.91
2018-09-28T11:53:26.409Z,100004.57
2018-09-28T11:56:00.895Z,100008.84
2018-09-28T11:58:35.468Z,100008.84
2018-09-28T12:01:10.119Z,100006.83
2018-09-28T12:03:44.670Z,100010.15
2018-09-28T12:06:19.270Z,100007.97
2018-09-28T12:08:53.810Z,100009.59
2018-09-28T12:11:28.321Z,100011.84
2018-09-28T12:14:03.459Z,100009.55
2018-09-28T12:16:38.117Z,100005.64
2018-09-28T12:19:12.848Z,99993.23
2018-09-28T12:21:47.586Z,99998.79
2018-09-28T12:24:22.346Z,99997.75
2018-09-28T12:26:57.282Z,99997.80
2018-09-28T12:29:32.320Z,99997.92
2018-09-28T12:32:06.836Z,99993.87
2018-09-28T12:34:41.461Z,99991.45
2018-09-28T12:37:16.034Z,99992.73
2018-09-28T12:39:50.481Z,99994.13
2018-09-28T12:42:25.218Z,99992.97
2018-09-28T12:45:00.075Z,99998.88
2018-09-28T12:47:34.412Z,100005.51
2018-09-28T12:50:08.901Z,99998.91
2018-09-28T12:52:43.437Z,100005.71
2018-09-28T12:55:18.119Z,100004.04
2018-09-28T12:57:53.091Z,100011.60
2018-09-28T13:00:27.916Z,100020.20
2018-09-28T13:03:02.524Z,100022.77
2018-09-28T13:05:37.190Z,100024.14
2018-09-28T13:08:11.930Z,100019.40
2018-09-28T13:10:47.588Z,100019.16
2018-09-28T13:13:22.136Z,100029.25
2018-09-28T13:15:57.028Z,100027.98
2018-09-28T13:18:31.558Z,100023.44
2018-09-28T13:21:05.991Z,100027.16
2018-09-28T13:23:40.781Z,100021.38
2018-09-28T13:26:15.406Z,100030.87
2018-09-28T13:28:50.025Z,100025.62
2018-09-28T13:31:25.165Z,100024.30
2018-09-28T13:33:59.736Z,100023.05
2018-09-28T13:36:34.443Z,100013.37
2018-09-28T13:39:09.559Z,100013.64
2018-09-28T13:41:44.150Z,100011.41
2018-09-28T13:44:18.895Z,100005.50
2018-09-28T13:46:53.661Z,99998.53
2018-09-28T13:49:28.121Z,99996.83
2018-09-28T13:52:02.910Z,100003.22
2018-09-28T13:54:37.736Z,100000.92
2018-09-28T13:57:12.236Z,99999.45
2018-09-28T13:59:46.784Z,100009.34
2018-09-28T14:02:21.385Z,100013.20
2018-09-28T14:04:55.917Z,100005.20
2018-09-28T14:07:30.599Z,100005.64
2018-09-28T14:10:05.401Z,100010.26
2018-09-28T14:12:39.973Z,100012.61
2018-09-28T14:15:14.421Z,100010.30
2018-09-28T14:17:48.932Z,100004.86
2018-09-28T14:20:23.490Z,100003.05
2018-09-28T14:22:57.964Z,100004.68
2018-09-28T14:25:32.556Z,100008.69
2018-09-28T14:28:07.291Z,100011.20
2018-09-28T14:30:41.797Z,100014.17
2018-09-28T14:33:16.240Z,100013.27
2018-09-28T14:35:51.123Z,100011.67
2018-09-28T14:38:25.516Z,100014.91
2018-09-28T14:41:00.336Z,100019.66
2018-09-28T14:43:34.939Z,100026.66
2018-09-28T14:46:09.650Z,100019.28
2018-09-28T14:48:44.233Z,100024.25
2018-09-28T14:51:18.588Z,100018.09
2018-09-28T14:53:53.288Z,100019.04
2018-09-28T14:56:27.992Z,100023.85
2018-09-28T14:59:02.414Z,100027.89
2018-09-28T15:01:36.953Z,100026.95
2018-09-28T15:04:11.499Z,100030.75
2018-09-28T15:06:46.126Z,100033.54
2018-09-28T15:09:20.833Z,100029.12
2018-09-28T15:11:55.388Z,100034.74
2018-09-28T15:14:30.230Z,100030.80
2018-09-28T15:17:04.725Z,100032.63
2018-09-28T15:19:39.232Z,100034.23
2018-09-28T15:22:13.753Z,100040.20
2018-09-28T15:24:48.457Z,100044.43
2018-09-28T15:27:23.008Z,100044.71
2018-09-28T15:30:08.894Z,100045.18
2018-09-28T15:32:47.532Z,100044.92
2018-09-28T15:35:25.589Z,100044.08
2018-09-28T15:38:00.021Z,100054.66
2018-09-28T15:40:34.722Z,100053.09
2018-09-28T15:43:09.314Z,100049.05
2018-09-28T15:45:43.896Z,100046.22
2018-09-28T15:48:18.682Z,100043.88
2018-09-28T15:50:53.102Z,100040.94
2018-09-28T15:53:27.652Z,100040.13
2018-09-28T15:56:02.096Z,100045.28
2018-09-28T15:58:37.050Z,100040.02
2018-09-28T16:01:11.649Z,100048.02
2018-09-28T16:03:46.138Z,100047.53
2018-09-28T16:06:21.024Z,100059.88
2018-09-28T16:08:55.946Z,100068.54
2018-09-28T16:11:30.782Z,100073.41
2018-09-28T16:14:05.520Z,100072.03
2018-09-28T16:16:40.275Z,100082.17
2018-09-28T16:19:14.992Z,100078.47
2018-09-28T16:21:49.859Z,100086.22
2018-09-28T16:24:24.410Z,100084.66
2018-09-28T16:26:59.116Z,100081.48
2018-09-28T16:29:34.080Z,100077.87
2018-09-28T16:32:08.694Z,100082.73
2018-09-28T16:34:43.420Z,100086.98
2018-09-28T16:37:17.937Z,100094.95
2018-09-28T16:39:52.592Z,100095.36
2018-09-28T16:42:27.122Z,100092.59
2018-09-28T16:45:01.748Z,100097.67
2018-09-28T16:47:36.399Z,100100.66
2018-09-28T16:50:10.931Z,100108.69
2018-09-28T16:52:45.388Z,100107.22
2018-09-28T16:55:20.105Z,100105.44
2018-09-28T16:57:54.650Z,100108.03
2018-09-28T17:00:29.320Z,100113.34
2018-09-28T17:03:03.900Z,100119.41
2018-09-28T17:05:38.448Z,100129.84
2018-09-28T17:08:12.915Z,100130.99
2018-09-28T17:10:47.572Z,100127.54
2018-09-28T17:13:22.252Z,100127.86
2018-09-28T17:15:57.052Z,100137.77
2018-09-28T17:18:31.776Z,100147.89
2018-09-28T17:21:06.129Z,100148.52
2018-09-28T17:23:40.617Z,100143.95
2018-09-28T17:26:15.121Z,100146.14
2018-09-28T17:28:49.692Z,100150.23
2018-09-28T17:31:24.480Z,100161.11
2018-09-28T17:33:59.137Z,100164.68
2018-09-28T17:36:33.767Z,100172.61
2018-09-28T17:39:10.489Z,100179.47
2018-09-28T17:41:45.044Z,100178.66
2018-09-28T17:44:19.541Z,100174.10
2018-09-28T17:46:54.002Z,100170.36
2018-09-28T17:49:28.456Z,100172.82
2018-09-28T17:52:02.993Z,100172.60
2018-09-28T17:54:38.183Z,100186.19
2018-09-28T17:57:12.591Z,100194.64
2018-09-28T17:59:47.107Z,100191.41
2018-09-28T18:02:21.518Z,100194.13
2018-09-28T18:04:56.084Z,100197.39
2018-09-28T18:07:30.773Z,100193.06
2018-09-28T18:10:05.106Z,100198.50
2018-09-28T18:12:39.644Z,100194.47
2018-09-28T18:15:14.246Z,100207.77
2018-09-28T18:17:48.719Z,100218.62
2018-09-28T18:20:23.270Z,100222.12
2018-09-28T18:22:57.675Z,100225.41
2018-09-28T18:25:32.473Z,100225.15
2018-09-28T18:28:07.139Z,100222.70
2018-09-28T18:30:41.779Z,100224.59
2018-09-28T18:33:16.188Z,100222.71
2018-09-28T18:35:50.777Z,100232.49
2018-09-28T18:38:25.222Z,100236.04
2018-09-28T18:40:59.816Z,100248.25
2018-09-28T18:43:34.639Z,100248.79
2018-09-28T18:46:09.340Z,100250.98
2018-09-28T18:48:43.933Z,100259.41
2018-09-28T18:51:18.434Z,100252.62
2018-09-28T18:53:53.001Z,100259.12
2018-09-28T18:56:27.749Z,100262.11
2018-09-28T18:59:02.344Z,100267.55
2018-09-28T19:01:37.309Z,100270.53
2018-09-28T19:04:15.585Z,100272.98
2018-09-28T19:06:51.088Z,100278.69
2018-09-28T19:09:25.856Z,100274.05
2018-09-28T19:12:07.886Z,100287.36
2018-09-28T19:14:44.476Z,100290.88
2018-09-28T19:17:19.010Z,100288.98
2018-09-28T19:19:53.500Z,100291.97
2018-09-28T19:22:35.433Z,100282.49
2018-09-28T19:25:14.872Z,100286.27
2018-09-28T19:27:49.648Z,100280.30
2018-09-28T19:30:24.194Z,100282.22
2018-09-28T19:32:58.674Z,100283.04
2018-09-28T19:35:33.574Z,100283.55
2018-09-28T19:38:08.075Z,100291.42
2018-09-28T19:40:42.577Z,100296.28
2018-09-28T19:43:17.200Z,100291.13
2018-09-28T19:45:51.672Z,100295.47
2018-09-28T19:48:26.569Z,100294.37
2018-09-28T19:51:01.497Z,100294.37
2018-09-28T19:53:36.015Z,100306.84
2018-09-28T19:56:10.556Z,100302.23
2018-09-28T19:58:44.912Z,100301.16
2018-09-28T20:01:19.279Z,100313.91
2018-09-28T20:03:53.780Z,100312.81
2018-09-28T20:06:28.390Z,100313.58
2018-09-28T20:09:02.828Z,100319.81
2018-09-28T20:11:37.337Z,100324.16
2018-09-28T20:14:11.779Z,100330.94
2018-09-28T20:16:46.356Z,100329.57
2018-09-28T20:19:21.387Z,100330.39
2018-09-28T20:21:56.137Z,100333.90
2018-09-28T20:24:30.996Z,100332.26
2018-09-28T20:27:05.632Z,100334.36
2018-09-28T20:29:40.037Z,100335.16
2018-09-28T20:32:14.844Z,100345.73
2018-09-28T20:34:49.325Z,100341.11
2018-09-28T20:37:23.817Z,100354.91
2018-09-28T20:39:58.250Z,100349.47
2018-09-28T20:42:32.845Z,100352.16
2018-09-28T20:45:07.359Z,100352.64
2018-09-28T20:47:41.802Z,100363.72
2018-09-28T20:50:16.801Z,100364.48
2018-09-28T20:52:51.415Z,100361.48
2018-09-28T20:55:26.027Z,100365.07
2018-09-28T20:58:00.624Z,100367.20
2018-09-28T21:00:35.103Z,100365.07
2018-09-28T21:03:09.592Z,100372.34
2018-09-28T21:05:44.208Z,100364.72
2018-09-28T21:08:18.713Z,100368.50
2018-09-28T21:10:53.096Z,100372.56
2018-09-28T21:13:27.592Z,100376.37
2018-09-28T21:16:02.097Z,100375.78
2018-09-28T21:18:36.701Z,100377.36
2018-09-28T21:21:11.278Z,100376.27
2018-09-28T21:23:45.882Z,100381.65
2018-09-28T21:26:20.408Z,100378.12
2018-09-28T21:28:54.917Z,100375.36
2018-09-28T21:31:29.470Z,100377.81
2018-09-28T21:34:04.073Z,100371.28
2018-09-28T21:36:38.657Z,100382.69
2018-09-28T21:39:13.174Z,100379.17
2018-09-28T21:41:47.639Z,100379.69
2018-09-28T21:44:22.133Z,100375.63
2018-09-28T21:49:57.024Z,100385.34
2018-09-28T21:52:31.609Z,100381.49
2018-09-28T21:55:06.324Z,100388.24
2018-09-28T21:57:40.842Z,100382.27
2018-09-28T22:00:15.381Z,100382.25
2018-09-28T22:02:50.156Z,100381.70
2018-09-28T22:05:24.757Z,100379.28
2018-09-28T22:07:59.537Z,100382.23
2018-09-28T22:10:34.609Z,100378.98
2018-09-28T22:13:09.088Z,100385.23
2018-09-28T22:15:43.484Z,100386.55
2018-09-28T22:18:17.969Z,100384.64
2018-09-28T22:20:52.572Z,100380.19
2018-09-28T22:23:27.136Z,100384.30
2018-09-28T22:26:01.824Z,100388.89
2018-09-28T22:28:36.340Z,100384.14
2018-09-28T22:31:11.045Z,100390.89
2018-09-28T22:33:45.689Z,100394.11
2018-09-28T22:36:20.434Z,100390.28
2018-09-28T22:38:54.940Z,100394.06
2018-09-28T22:41:29.529Z,100402.69
2018-09-28T22:44:04.268Z,100396.39
2018-09-28T22:46:39.149Z,100401.77
2018-09-28T22:49:13.744Z,100397.77
2018-09-28T22:51:48.173Z,100397.77
2018-09-28T22:54:26.241Z,100390.23
2018-09-28T22:57:00.653Z,100395.91
2018-09-28T22:59:35.446Z,100382.38
2018-09-28T23:02:09.993Z,100375.59
2018-09-28T23:04:44.671Z,100372.48
2018-09-28T23:07:19.329Z,100383.09
2018-09-28T23:09:53.684Z,100387.41
2018-09-28T23:12:28.112Z,100392.23
2018-09-28T23:15:03.017Z,100390.03
2018-09-28T23:17:37.576Z,100393.22
2018-09-28T23:20:11.992Z,100385.84
2018-09-28T23:22:46.302Z,100374.95
2018-09-28T23:25:21.225Z,100380.23
2018-09-28T23:27:55.780Z,100385.31
2018-09-28T23:30:30.389Z,100387.61
2018-09-28T23:33:05.113Z,100398.13
2018-09-28T23:35:39.642Z,100387.55
2018-09-28T23:38:14.373Z,100393.17
2018-09-28T23:40:49.050Z,100394.99
2018-09-28T23:43:23.602Z,100393.89
2018-09-28T23:45:58.148Z,100399.02
2018-09-28T23:48:32.704Z,100407.78
2018-09-28T23:51:07.189Z,100409.56
2018-09-28T23:53:41.979Z,100408.22
2018-09-28T23:56:16.347Z,100403.76
2018-09-28T23:58:50.688Z,100401.94
